createdAt,value
2023-03-19T00:01:02.944Z,8.5
2023-03-19T00:03:03.088Z,8.4
2023-03-19T00:05:03.186Z,8.4
2023-03-19T00:07:02.965Z,8.4
2023-03-19T00:09:02.852Z,8.4
2023-03-19T00:11:02.877Z,8.4
2023-03-19T00:13:03.512Z,8.4
2023-03-19T00:15:03.206Z,8.2
2023-03-19T00:17:03.522Z,8.1
2023-03-19T00:19:03.283Z,8.1
2023-03-19T00:21:02.859Z,8.1
2023-03-19T00:23:02.869Z,8
2023-03-19T00:25:02.911Z,8
2023-03-19T00:27:02.875Z,8.1
2023-03-19T00:29:03.186Z,8
2023-03-19T00:31:02.990Z,7.9
2023-03-19T00:33:02.983Z,7.9
2023-03-19T00:35:02.876Z,8.1
2023-03-19T00:37:02.971Z,8.1
2023-03-19T00:39:03.627Z,8
2023-03-19T00:41:03.482Z,8
2023-03-19T00:43:03.211Z,7.8
2023-03-19T00:45:03.297Z,7.5
2023-03-19T00:47:03.493Z,7.6
2023-03-19T00:49:02.956Z,7.6
2023-03-19T00:51:02.887Z,7.6
2023-03-19T00:53:02.884Z,7.6
2023-03-19T00:55:02.953Z,7.7
2023-03-19T00:57:02.977Z,7.7
2023-03-19T00:59:02.958Z,7.6
2023-03-19T01:01:03.073Z,7.7
2023-03-19T01:03:02.949Z,7.7
2023-03-19T01:05:02.866Z,7.6
2023-03-19T01:07:03.011Z,7.6
2023-03-19T01:09:02.972Z,7.6
2023-03-19T01:11:10.800Z,7.5
2023-03-19T01:13:03.218Z,7.7
2023-03-19T01:15:02.876Z,7.8
2023-03-19T01:17:05.701Z,7.7
2023-03-19T01:19:03.030Z,7.6
2023-03-19T01:21:03.653Z,7.5
2023-03-19T01:23:03.213Z,7.5
2023-03-19T01:25:02.888Z,7.5
2023-03-19T01:27:02.872Z,7.7
2023-03-19T01:29:02.912Z,7.7
2023-03-19T01:31:02.975Z,7.7
2023-03-19T01:33:05.508Z,7.5
2023-03-19T01:35:02.881Z,7.6
2023-03-19T01:37:08.210Z,7.6
2023-03-19T01:39:04.147Z,7.6
2023-03-19T01:41:02.865Z,7.6
2023-03-19T01:43:02.962Z,7.6
2023-03-19T01:45:02.983Z,7.6
2023-03-19T01:47:02.960Z,7.5
2023-03-19T01:49:03.511Z,7.5
2023-03-19T01:51:03.253Z,7.4
2023-03-19T01:53:03.507Z,7.6
2023-03-19T01:55:02.890Z,7.6
2023-03-19T01:57:02.889Z,7.5
2023-03-19T01:59:02.881Z,7.6
2023-03-19T02:01:02.886Z,7.6
2023-03-19T02:03:02.908Z,7.6
2023-03-19T02:05:02.885Z,7.5
2023-03-19T02:07:05.424Z,7.5
2023-03-19T02:09:03.217Z,7.4
2023-03-19T02:11:02.875Z,7.3
2023-03-19T02:13:06.169Z,7.2
2023-03-19T02:15:03.497Z,7.2
2023-03-19T02:17:02.856Z,7.3
2023-03-19T02:19:03.000Z,7.1
2023-03-19T02:21:02.861Z,7.3
2023-03-19T02:23:03.645Z,7.3
2023-03-19T02:25:02.881Z,7.1
2023-03-19T02:27:02.873Z,7.2
2023-03-19T02:29:06.124Z,7.2
2023-03-19T02:31:03.350Z,7.1
2023-03-19T02:33:02.902Z,7.2
2023-03-19T02:35:02.879Z,7.3
2023-03-19T02:37:03.522Z,7.3
2023-03-19T02:39:03.179Z,7.4
2023-03-19T02:41:06.475Z,7.6
2023-03-19T02:43:11.137Z,7.6
2023-03-19T02:45:06.104Z,7.6
2023-03-19T02:47:06.081Z,7.6
2023-03-19T02:49:03.507Z,7.7
2023-03-19T02:51:02.858Z,7.6
2023-03-19T02:53:02.881Z,7.4
2023-03-19T02:55:08.642Z,7.5
2023-03-19T02:57:02.898Z,7.5
2023-03-19T02:59:02.890Z,7.6
2023-03-19T03:01:03.027Z,7.6
2023-03-19T03:03:05.900Z,7.5
2023-03-19T03:05:04.272Z,7.3
2023-03-19T03:09:03.194Z,7.5
2023-03-19T03:11:09.932Z,7.4
2023-03-19T03:13:02.864Z,7.5
2023-03-19T03:15:03.498Z,7.5
2023-03-19T03:17:08.561Z,7.5
2023-03-19T03:19:02.893Z,7.3
2023-03-19T03:23:02.892Z,7.2
2023-03-19T03:25:02.898Z,7.2
2023-03-19T03:27:02.870Z,7.4
2023-03-19T03:29:10.533Z,7.4
2023-03-19T03:31:02.936Z,7.6
2023-03-19T03:33:03.057Z,7.6
2023-03-19T03:35:10.470Z,7.7
2023-03-19T03:37:02.912Z,7.6
2023-03-19T03:39:12.354Z,7.7
2023-03-19T03:41:02.887Z,7.8
2023-03-19T03:43:02.986Z,7.8
2023-03-19T03:45:03.337Z,7.8
2023-03-19T03:49:02.873Z,7.7
2023-03-19T03:51:02.875Z,7.8
2023-03-19T03:53:03.360Z,7.7
2023-03-19T03:55:02.918Z,7.7
2023-03-19T03:57:03.700Z,8
2023-03-19T03:59:05.917Z,8.1
2023-03-19T04:01:04.161Z,8
2023-03-19T04:03:03.005Z,8.1
2023-03-19T04:05:03.229Z,8
2023-03-19T04:07:02.909Z,7.8
2023-03-19T04:09:02.902Z,7.6
2023-03-19T04:11:02.904Z,7.7
2023-03-19T04:13:02.979Z,7.9
2023-03-19T04:15:03.342Z,8.1
2023-03-19T04:17:05.619Z,8.2
2023-03-19T04:19:03.260Z,8.4
2023-03-19T04:21:02.909Z,8.4
2023-03-19T04:25:02.897Z,7.9
2023-03-19T04:27:02.902Z,7.2
2023-03-19T04:29:02.889Z,7.3
2023-03-19T04:31:03.053Z,6.9
2023-03-19T04:33:03.273Z,6.7
2023-03-19T04:35:02.914Z,6.7
2023-03-19T04:37:03.261Z,6.7
2023-03-19T04:39:02.912Z,6.9
2023-03-19T04:41:02.905Z,7.1
2023-03-19T04:43:02.931Z,7.1
2023-03-19T04:45:06.546Z,7
2023-03-19T04:47:02.915Z,7.1
2023-03-19T04:49:02.923Z,7
2023-03-19T04:51:02.991Z,7.1
2023-03-19T04:53:02.903Z,7.1
2023-03-19T04:55:02.995Z,6.9
2023-03-19T04:57:03.008Z,7.1
2023-03-19T04:59:04.314Z,7.1
2023-03-19T05:01:03.525Z,7
2023-03-19T05:03:02.930Z,7.1
2023-03-19T05:05:02.922Z,7
2023-03-19T05:07:02.905Z,7.1
2023-03-19T05:09:03.220Z,7.1
2023-03-19T05:11:02.907Z,7.1
2023-03-19T05:13:02.929Z,7.2
2023-03-19T05:15:02.996Z,7.1
2023-03-19T05:17:03.631Z,7.2
2023-03-19T05:19:02.920Z,7.1
2023-03-19T05:21:02.924Z,7.1
2023-03-19T05:23:03.560Z,7.1
2023-03-19T05:25:03.260Z,7.3
2023-03-19T05:27:02.908Z,7.3
2023-03-19T05:29:03.246Z,7.2
2023-03-19T05:31:02.951Z,7.3
2023-03-19T05:33:03.047Z,7.3
2023-03-19T05:35:03.332Z,7.3
2023-03-19T05:37:03.252Z,7.3
2023-03-19T05:39:02.936Z,7.2
2023-03-19T05:41:02.890Z,7.3
2023-03-19T05:43:03.032Z,7.5
2023-03-19T05:45:02.999Z,7.4
2023-03-19T05:47:10.124Z,7.5
2023-03-19T05:49:02.952Z,7.5
2023-03-19T05:51:02.934Z,7.6
2023-03-19T05:53:03.284Z,7.7
2023-03-19T05:55:02.952Z,7.8
2023-03-19T05:57:03.508Z,7.8
2023-03-19T05:59:03.285Z,7.9
2023-03-19T06:01:02.920Z,7.9
2023-03-19T06:03:02.951Z,7.9
2023-03-19T06:05:02.965Z,7.9
2023-03-19T06:07:02.914Z,7.9
2023-03-19T06:09:03.228Z,8
2023-03-19T06:11:03.302Z,8.1
2023-03-19T06:13:03.270Z,8.1
2023-03-19T06:15:02.948Z,8.1
2023-03-19T06:17:02.921Z,8.1
2023-03-19T06:19:03.540Z,8.2
2023-03-19T06:21:02.916Z,8.2
2023-03-19T06:23:02.991Z,8.2
2023-03-19T06:25:02.985Z,8.2
2023-03-19T06:29:02.918Z,8.2
2023-03-19T06:31:03.004Z,8.1
2023-03-19T06:33:03.046Z,8.2
2023-03-19T06:35:09.770Z,8.4
2023-03-19T06:37:02.937Z,8.5
2023-03-19T06:39:03.042Z,8.4
2023-03-19T06:41:02.929Z,8.4
2023-03-19T06:43:03.226Z,8.4
2023-03-19T06:45:02.930Z,8.4
2023-03-19T06:47:02.959Z,8.5
2023-03-19T06:49:03.015Z,8.5
2023-03-19T06:51:10.181Z,8.5
2023-03-19T06:53:03.229Z,8.5
2023-03-19T06:55:03.632Z,8.5
2023-03-19T06:57:02.951Z,8.5
2023-03-19T06:59:02.909Z,8.5
2023-03-19T07:01:03.127Z,8.4
2023-03-19T07:03:03.020Z,8.4
2023-03-19T07:05:03.271Z,8.4
2023-03-19T07:07:02.924Z,8.4
2023-03-19T07:09:02.956Z,8.4
2023-03-19T07:11:02.911Z,8.4
2023-03-19T07:13:02.899Z,8.4
2023-03-19T07:15:02.939Z,8.3
2023-03-19T07:17:03.244Z,8.4
2023-03-19T07:19:02.926Z,8.4
2023-03-19T07:21:03.306Z,8.3
2023-03-19T07:23:02.900Z,8.4
2023-03-19T07:25:03.287Z,8.3
2023-03-19T07:27:02.929Z,8.3
2023-03-19T07:29:03.211Z,8.4
2023-03-19T07:31:02.949Z,8.2
2023-03-19T07:33:09.047Z,8.3
2023-03-19T07:35:02.936Z,8.4
2023-03-19T07:37:03.606Z,8.4
2023-03-19T07:41:03.572Z,8.4
2023-03-19T07:43:02.943Z,8.4
2023-03-19T07:45:05.469Z,8.4
2023-03-19T07:47:08.169Z,8.4
2023-03-19T07:49:03.288Z,8.5
2023-03-19T07:51:02.918Z,8.7
2023-03-19T07:53:02.908Z,8.6
2023-03-19T07:55:03.214Z,8.7
2023-03-19T07:57:04.190Z,8.8
2023-03-19T07:59:05.867Z,8.8
2023-03-19T08:01:02.938Z,8.8
2023-03-19T08:03:02.908Z,9.1
2023-03-19T08:05:03.234Z,9.1
2023-03-19T08:07:02.929Z,9.1
2023-03-19T08:09:02.975Z,9.1
2023-03-19T08:11:02.916Z,9.1
2023-03-19T08:13:02.927Z,9.2
2023-03-19T08:15:02.919Z,9.3
2023-03-19T08:17:06.354Z,9.4
2023-03-19T08:21:02.943Z,9.3
2023-03-19T08:23:02.925Z,9.3
2023-03-19T08:25:02.964Z,9.3
2023-03-19T08:27:02.916Z,9.2
2023-03-19T08:29:02.933Z,9.3
2023-03-19T08:31:03.673Z,9.2
2023-03-19T08:33:04.523Z,9.2
2023-03-19T08:35:03.243Z,9.2
2023-03-19T08:37:02.956Z,9.3
2023-03-19T08:39:03.022Z,9.3
2023-03-19T08:41:02.912Z,9.3
2023-03-19T08:43:08.390Z,9.4
2023-03-19T08:45:02.943Z,9.6
2023-03-19T08:47:04.272Z,9.6
2023-03-19T08:49:02.904Z,9.6
2023-03-19T08:51:02.923Z,9.6
2023-03-19T08:53:03.419Z,9.8
2023-03-19T08:55:02.932Z,9.8
2023-03-19T08:57:04.221Z,9.7
2023-03-19T08:59:02.954Z,9.8
2023-03-19T09:01:03.223Z,9.9
2023-03-19T09:03:03.253Z,10
2023-03-19T09:05:02.928Z,10.1
2023-03-19T09:07:02.946Z,10.4
2023-03-19T09:09:03.293Z,10.5
2023-03-19T09:11:03.032Z,10.7
2023-03-19T09:13:03.555Z,10.9
2023-03-19T09:15:02.938Z,10.8
2023-03-19T09:17:02.931Z,10.6
2023-03-19T09:19:03.573Z,10.8
2023-03-19T09:21:02.972Z,10.6
2023-03-19T09:23:03.308Z,10.9
2023-03-19T09:25:02.950Z,10.8
2023-03-19T09:27:05.784Z,10.8
2023-03-19T09:29:03.278Z,10.6
2023-03-19T09:31:02.960Z,10.8
2023-03-19T09:33:03.314Z,10.6
2023-03-19T09:35:02.935Z,10.8
2023-03-19T09:37:03.236Z,10.7
2023-03-19T09:39:10.014Z,10.6
2023-03-19T09:41:02.945Z,10.6
2023-03-19T09:43:06.146Z,10.4
2023-03-19T09:45:08.422Z,10.6
2023-03-19T09:47:03.010Z,10.7
2023-03-19T09:49:02.933Z,10.6
2023-03-19T09:51:02.976Z,10.5
2023-03-19T09:53:02.941Z,10.6
2023-03-19T09:55:05.548Z,10.3
2023-03-19T09:57:03.020Z,10.3
2023-03-19T09:59:02.996Z,10.3
2023-03-19T10:01:10.300Z,10.2
2023-03-19T10:03:04.192Z,10.2
2023-03-19T10:05:02.961Z,10.3
2023-03-19T10:07:03.287Z,10.4
2023-03-19T10:09:02.953Z,10.4
2023-03-19T10:11:02.964Z,10.4
2023-03-19T10:13:03.272Z,10.5
2023-03-19T10:15:03.354Z,10.6
2023-03-19T10:17:06.720Z,10.7
2023-03-19T10:19:03.011Z,10.7
2023-03-19T10:21:05.505Z,10.9
2023-03-19T10:23:02.925Z,11.3
2023-03-19T10:25:03.055Z,11.4
2023-03-19T10:27:09.571Z,11.4
2023-03-19T10:29:03.261Z,11.4
2023-03-19T10:31:03.272Z,11.3
2023-03-19T10:33:03.051Z,11.4
2023-03-19T10:35:02.964Z,11.7
2023-03-19T10:37:03.163Z,11.6
2023-03-19T10:39:03.272Z,11.4
2023-03-19T10:41:06.698Z,11.6
2023-03-19T10:43:03.513Z,11.7
2023-03-19T10:45:06.490Z,11.6
2023-03-19T10:47:04.414Z,11.8
2023-03-19T10:49:02.964Z,11.8
2023-03-19T10:51:02.935Z,11.8
2023-03-19T10:53:08.431Z,11.8
2023-03-19T10:55:06.777Z,12
2023-03-19T10:57:02.949Z,11.8
2023-03-19T10:59:02.957Z,11.8
2023-03-19T11:01:03.073Z,12
2023-03-19T11:03:02.938Z,12.1
2023-03-19T11:05:03.405Z,12.2
2023-03-19T11:07:03.022Z,12.2
2023-03-19T11:09:06.176Z,12
2023-03-19T11:11:03.199Z,12.5
2023-03-19T11:13:03.054Z,12.7
2023-03-19T11:15:03.654Z,12.7
2023-03-19T11:17:08.090Z,12.7
2023-03-19T11:19:03.023Z,12.7
2023-03-19T11:21:06.647Z,12.8
2023-03-19T11:23:02.975Z,12.9
2023-03-19T11:25:06.812Z,12.9
2023-03-19T11:27:02.917Z,12.9
2023-03-19T11:29:03.754Z,13
2023-03-19T11:31:06.659Z,13
2023-03-19T11:33:05.617Z,13
2023-03-19T11:35:02.953Z,13.1
2023-03-19T11:37:03.559Z,13
2023-03-19T11:39:02.957Z,13
2023-03-19T11:41:02.922Z,12.9
2023-03-19T11:43:03.011Z,12.9
2023-03-19T11:45:05.697Z,13
2023-03-19T11:47:21.123Z,13.1
2023-03-19T11:49:02.934Z,13.2
2023-03-19T11:51:03.302Z,13.3
2023-03-19T11:53:03.599Z,13.3
2023-03-19T11:55:09.775Z,13.1
2023-03-19T11:59:02.937Z,13.1
2023-03-19T12:01:03.174Z,13.1
2023-03-19T12:03:09.627Z,13.3
2023-03-19T12:05:03.088Z,13.4
2023-03-19T12:07:02.934Z,13.4
2023-03-19T12:09:03.031Z,13.4
2023-03-19T12:11:09.602Z,13.4
2023-03-19T12:13:02.952Z,13.5
2023-03-19T12:15:08.452Z,13.5
2023-03-19T12:17:08.100Z,13.5
2023-03-19T12:19:08.265Z,13.5
2023-03-19T12:21:03.576Z,13.5
2023-03-19T12:23:06.147Z,13.5
2023-03-19T12:25:06.611Z,13.6
2023-03-19T12:27:03.250Z,13.7
2023-03-19T12:29:04.069Z,13.6
2023-03-19T12:31:09.923Z,13.6
2023-03-19T12:33:02.980Z,13.6
2023-03-19T12:35:12.985Z,13.6
2023-03-19T12:37:10.089Z,13.6
2023-03-19T12:39:03.267Z,13.6
2023-03-19T12:41:06.627Z,13.6
2023-03-19T12:43:04.338Z,13.5
2023-03-19T12:45:02.994Z,13.6
2023-03-19T12:47:03.058Z,13.7
2023-03-19T12:49:02.944Z,13.8
2023-03-19T12:53:02.928Z,13.9
2023-03-19T12:55:03.180Z,14.1
2023-03-19T12:57:06.631Z,14.1
2023-03-19T12:59:03.078Z,14.1
2023-03-19T13:01:03.362Z,14.1
2023-03-19T13:03:02.996Z,14.1
2023-03-19T13:05:03.001Z,14
2023-03-19T13:07:02.957Z,13.9
2023-03-19T13:09:08.347Z,14
2023-03-19T13:11:11.120Z,13.9
2023-03-19T13:13:02.989Z,14
2023-03-19T13:15:06.226Z,14.1
2023-03-19T13:17:03.005Z,14.1
2023-03-19T13:19:02.945Z,14.1
2023-03-19T13:21:10.168Z,14.3
2023-03-19T13:23:02.971Z,14.3
2023-03-19T13:25:09.803Z,14.3
2023-03-19T13:27:05.721Z,14.2
2023-03-19T13:29:03.008Z,14.1
2023-03-19T13:31:08.146Z,14.1
2023-03-19T13:33:03.005Z,14.1
2023-03-19T13:35:06.639Z,14
2023-03-19T13:41:03.003Z,13.9
2023-03-19T13:43:02.969Z,14
2023-03-19T13:45:09.631Z,14.1
2023-03-19T13:47:06.697Z,14.1
2023-03-19T13:49:02.942Z,14.1
2023-03-19T13:51:08.889Z,14.1
2023-03-19T13:53:03.247Z,14.1
2023-03-19T13:55:03.568Z,14.1
2023-03-19T13:57:04.260Z,14.1
2023-03-19T13:59:02.961Z,14.1
2023-03-19T14:03:03.307Z,13.8
2023-03-19T14:05:06.610Z,13.8
2023-03-19T14:07:06.197Z,13.9
2023-03-19T14:09:03.028Z,13.9
2023-03-19T14:11:02.972Z,13.9
2023-03-19T14:13:02.997Z,13.9
2023-03-19T14:15:03.329Z,13.9
2023-03-19T14:17:02.997Z,14
2023-03-19T14:19:02.984Z,14
2023-03-19T14:21:06.981Z,14
2023-03-19T14:23:03.501Z,13.9
2023-03-19T14:25:03.834Z,13.8
2023-03-19T14:27:03.600Z,13.8
2023-03-19T14:29:02.985Z,13.8
2023-03-19T14:31:02.971Z,13.9
2023-03-19T14:33:03.053Z,13.9
2023-03-19T14:35:03.613Z,14
2023-03-19T14:37:02.955Z,14
2023-03-19T14:39:02.977Z,14
2023-03-19T14:41:03.026Z,14.1
2023-03-19T14:43:02.967Z,14.1
2023-03-19T14:45:06.571Z,14.1
2023-03-19T14:47:03.395Z,14.1
2023-03-19T14:49:03.081Z,14.1
2023-03-19T14:51:02.997Z,14.1
2023-03-19T14:53:03.082Z,14
2023-03-19T14:55:02.989Z,14.1
2023-03-19T14:57:02.955Z,14.1
2023-03-19T14:59:03.018Z,14.1
2023-03-19T15:01:03.012Z,14.1
2023-03-19T15:03:02.969Z,14.1
2023-03-19T15:05:03.007Z,14.1
2023-03-19T15:07:03.077Z,14.2
2023-03-19T15:09:03.335Z,14.2
2023-03-19T15:11:02.981Z,14.2
2023-03-19T15:13:03.007Z,14.2
2023-03-19T15:15:09.770Z,14.2
2023-03-19T15:17:03.426Z,14.2
2023-03-19T15:19:03.313Z,14.2
2023-03-19T15:21:05.555Z,14.2
2023-03-19T15:23:03.688Z,14.2
2023-03-19T15:25:02.991Z,14.2
2023-03-19T15:27:02.996Z,14.2
2023-03-19T15:29:04.408Z,14.2
2023-03-19T15:31:18.498Z,14.1
2023-03-19T15:33:12.296Z,14.1
2023-03-19T15:35:03.093Z,14.1
2023-03-19T15:37:03.292Z,14.1
2023-03-19T15:39:03.352Z,14.1
2023-03-19T15:41:03.235Z,14.1
2023-03-19T15:43:09.387Z,14.2
2023-03-19T15:45:03.290Z,14.2
2023-03-19T15:47:02.976Z,14.2
2023-03-19T15:49:04.269Z,14.3
2023-03-19T15:51:02.953Z,14.3
2023-03-19T15:55:03.021Z,14.2
2023-03-19T15:57:03.616Z,14.2
2023-03-19T15:59:03.282Z,14.2
2023-03-19T16:01:03.010Z,14.2
2023-03-19T16:03:06.297Z,14.2
2023-03-19T16:05:20.778Z,14.1
2023-03-19T16:07:03.080Z,14.1
2023-03-19T16:09:03.005Z,14.1
2023-03-19T16:11:02.988Z,14.1
2023-03-19T16:13:02.955Z,14
2023-03-19T16:15:06.817Z,14
2023-03-19T16:17:02.987Z,14
2023-03-19T16:19:02.963Z,14
2023-03-19T16:21:03.082Z,13.9
2023-03-19T16:23:03.035Z,13.9
2023-03-19T16:25:10.410Z,13.9
2023-03-19T16:27:02.995Z,13.9
2023-03-19T16:29:11.209Z,13.9
2023-03-19T16:31:06.543Z,13.7
2023-03-19T16:33:06.382Z,13.8
2023-03-19T16:35:03.405Z,13.7
2023-03-19T16:37:03.025Z,13.7
2023-03-19T16:39:02.969Z,13.5
2023-03-19T16:41:03.609Z,13.6
2023-03-19T16:43:02.954Z,13.4
2023-03-19T16:45:03.028Z,13.4
2023-03-19T16:47:03.613Z,13.3
2023-03-19T16:49:03.000Z,13.3
2023-03-19T16:51:08.156Z,13.2
2023-03-19T16:53:02.948Z,13.1
2023-03-19T16:55:03.295Z,13.1
2023-03-19T16:57:02.995Z,13
2023-03-19T16:59:03.321Z,12.9
2023-03-19T17:01:13.018Z,12.7
2023-03-19T17:03:02.980Z,12.7
2023-03-19T17:05:04.196Z,12.6
2023-03-19T17:07:03.326Z,12.6
2023-03-19T17:09:03.578Z,12.7
2023-03-19T17:11:03.318Z,12.6
2023-03-19T17:13:02.982Z,12
2023-03-19T17:15:03.322Z,12
2023-03-19T17:17:03.030Z,12.1
2023-03-19T17:19:07.385Z,12.1
2023-03-19T17:21:02.993Z,12.2
2023-03-19T17:23:02.972Z,12
2023-03-19T17:25:03.000Z,12
2023-03-19T17:27:03.321Z,12
2023-03-19T17:29:02.970Z,11.8
2023-03-19T17:31:02.998Z,11.7
2023-03-19T17:33:03.038Z,11.6
2023-03-19T17:35:03.084Z,11.6
2023-03-19T17:37:03.096Z,11.4
2023-03-19T17:39:04.252Z,11.4
2023-03-19T17:41:04.396Z,11.4
2023-03-19T17:43:03.009Z,11.3
2023-03-19T17:45:03.304Z,11.2
2023-03-19T17:47:03.345Z,11.2
2023-03-19T17:49:03.672Z,11.1
2023-03-19T17:51:03.314Z,11.2
2023-03-19T17:53:03.029Z,11.2
2023-03-19T17:55:03.057Z,11.1
2023-03-19T17:57:03.088Z,11
2023-03-19T17:59:03.328Z,10.9
2023-03-19T18:01:03.008Z,10.8
2023-03-19T18:03:02.978Z,10.8
2023-03-19T18:05:03.034Z,10.5
2023-03-19T18:07:03.086Z,10.6
2023-03-19T18:09:03.125Z,10.5
2023-03-19T18:13:02.998Z,10.7
2023-03-19T18:15:03.344Z,10.7
2023-03-19T18:17:03.003Z,10.6
2023-03-19T18:19:03.096Z,10.5
2023-03-19T18:21:03.948Z,10.4
2023-03-19T18:23:02.999Z,10.3
2023-03-19T18:25:03.147Z,10.3
2023-03-19T18:27:03.110Z,10.4
2023-03-19T18:31:03.007Z,10.2
2023-03-19T18:33:03.234Z,10.2
2023-03-19T18:35:03.619Z,10.1
2023-03-19T18:37:03.024Z,10.1
2023-03-19T18:39:03.423Z,10
2023-03-19T18:41:03.026Z,9.6
2023-03-19T18:43:02.980Z,10
2023-03-19T18:45:03.126Z,9.8
2023-03-19T18:47:07.741Z,9.6
2023-03-19T18:49:03.320Z,9.7
2023-03-19T18:51:03.022Z,9.8
2023-03-19T18:53:03.080Z,9.6
2023-03-19T18:55:03.135Z,9.5
2023-03-19T18:57:03.738Z,9.3
2023-03-19T18:59:03.630Z,9.4
2023-03-19T19:01:03.662Z,9.4
2023-03-19T19:03:03.017Z,9.4
2023-03-19T19:05:03.073Z,9.4
2023-03-19T19:07:03.413Z,9.4
2023-03-19T19:09:03.051Z,9.2
2023-03-19T19:11:03.066Z,9.4
2023-03-19T19:15:03.013Z,9.4
2023-03-19T19:17:03.029Z,9.5
2023-03-19T19:19:02.994Z,9.5
2023-03-19T19:21:03.040Z,9.4
2023-03-19T19:23:03.426Z,9.4
2023-03-19T19:25:03.026Z,9.4
2023-03-19T19:27:03.085Z,9.4
2023-03-19T19:31:03.056Z,9.3
2023-03-19T19:33:03.322Z,9.3
2023-03-19T19:35:02.994Z,9.4
2023-03-19T19:37:03.077Z,9.3
2023-03-19T19:39:03.089Z,9.2
2023-03-19T19:41:07.776Z,9.3
2023-03-19T19:43:03.323Z,9.3
2023-03-19T19:45:03.693Z,9.3
2023-03-19T19:47:03.310Z,9.3
2023-03-19T19:49:03.001Z,9.3
2023-03-19T19:51:03.064Z,9.3
2023-03-19T19:53:03.011Z,9.3
2023-03-19T19:55:03.299Z,9.4
2023-03-19T19:57:03.024Z,9.4
2023-03-19T19:59:03.429Z,9.5
2023-03-19T20:01:04.608Z,9.5
2023-03-19T20:03:03.103Z,9.6
2023-03-19T20:05:03.081Z,9.5
2023-03-19T20:07:03.324Z,9.4
2023-03-19T20:11:02.992Z,9.3
2023-03-19T20:13:02.998Z,9.3
2023-03-19T20:15:03.097Z,9.3
2023-03-19T20:17:03.366Z,9.2
2023-03-19T20:19:03.117Z,8.9
2023-03-19T20:21:03.461Z,8.8
2023-03-19T20:23:03.030Z,8.8
2023-03-19T20:25:03.050Z,8.7
2023-03-19T20:27:03.011Z,8.8
2023-03-19T20:29:03.015Z,8.9
2023-03-19T20:31:03.063Z,8.8
2023-03-19T20:33:03.548Z,8.8
2023-03-19T20:35:03.022Z,8.8
2023-03-19T20:37:03.019Z,9
2023-03-19T20:39:08.072Z,9
2023-03-19T20:41:03.013Z,8.8
2023-03-19T20:43:03.006Z,8.9
2023-03-19T20:45:03.114Z,9
2023-03-19T20:47:03.714Z,8.9
2023-03-19T20:49:02.987Z,9
2023-03-19T20:51:03.001Z,8.9
2023-03-19T20:53:03.100Z,8.9
2023-03-19T20:55:03.118Z,8.9
2023-03-19T20:57:03.128Z,9
2023-03-19T20:59:11.079Z,9.1
2023-03-19T21:01:03.325Z,9
2023-03-19T21:03:03.395Z,9
2023-03-19T21:05:03.324Z,8.9
2023-03-19T21:07:02.992Z,8.9
2023-03-19T21:11:02.998Z,8.9
2023-03-19T21:13:03.642Z,8.9
2023-03-19T21:15:03.020Z,8.9
2023-03-19T21:17:03.009Z,8.7
2023-03-19T21:19:03.345Z,8.7
2023-03-19T21:23:03.008Z,8.5
2023-03-19T21:25:03.025Z,8.5
2023-03-19T21:27:04.104Z,8.5
2023-03-19T21:29:03.015Z,8.5
2023-03-19T21:31:03.044Z,8.4
2023-03-19T21:33:03.757Z,8.5
2023-03-19T21:35:02.992Z,8.5
2023-03-19T21:37:03.355Z,8.4
2023-03-19T21:41:03.007Z,8.4
2023-03-19T21:43:03.107Z,8.3
2023-03-19T21:45:03.101Z,8.3
2023-03-19T21:47:03.078Z,8.4
2023-03-19T21:49:03.052Z,8.3
2023-03-19T21:51:03.181Z,8.2
2023-03-19T21:53:03.146Z,8.2
2023-03-19T21:55:08.690Z,8.2
2023-03-19T21:57:03.334Z,8.1
2023-03-19T21:59:02.992Z,8.2
2023-03-19T22:01:03.408Z,8.2
2023-03-19T22:03:03.345Z,8.2
2023-03-19T22:05:03.005Z,8.3
2023-03-19T22:07:03.014Z,8.4
2023-03-19T22:09:03.003Z,8.4
2023-03-19T22:11:03.017Z,8.3
2023-03-19T22:13:03.038Z,8.3
2023-03-19T22:15:03.364Z,8.4
2023-03-19T22:19:03.002Z,8.3
2023-03-19T22:21:03.061Z,8.4
2023-03-19T22:23:02.998Z,8.4
2023-03-19T22:25:02.994Z,8.5
2023-03-19T22:27:03.020Z,8.5
2023-03-19T22:29:03.341Z,8.4
2023-03-19T22:31:03.009Z,8.5
2023-03-19T22:33:03.665Z,8.4
2023-03-19T22:35:04.762Z,8.4
2023-03-19T22:37:02.998Z,8.4
2023-03-19T22:39:03.020Z,8.3
2023-03-19T22:41:03.046Z,8.4
2023-03-19T22:43:03.678Z,8.2
2023-03-19T22:45:03.027Z,8.3
2023-03-19T22:47:03.348Z,8.2
2023-03-19T22:49:03.008Z,8.2
2023-03-19T22:51:03.021Z,8.2
2023-03-19T22:55:03.025Z,8.1
2023-03-19T22:57:03.039Z,8.1
2023-03-19T22:59:03.024Z,8.1
2023-03-19T23:01:03.037Z,8.2
2023-03-19T23:03:03.136Z,8.1
2023-03-19T23:05:02.997Z,8.1
2023-03-19T23:07:03.642Z,8
2023-03-19T23:09:03.022Z,7.9
2023-03-19T23:11:03.065Z,7.9
2023-03-19T23:13:03.040Z,7.9
2023-03-19T23:15:03.364Z,7.9
2023-03-19T23:17:03.876Z,8
2023-03-19T23:19:03.434Z,8
2023-03-19T23:21:03.037Z,8
2023-03-19T23:23:03.050Z,8
2023-03-19T23:25:03.385Z,8.1
2023-03-19T23:27:03.027Z,8
2023-03-19T23:29:03.219Z,8.1
2023-03-19T23:31:03.838Z,8
2023-03-19T23:33:03.047Z,8.1
2023-03-19T23:35:03.355Z,8.1
2023-03-19T23:37:03.026Z,8.1
2023-03-19T23:39:03.354Z,8.1
2023-03-19T23:41:03.019Z,8.1
2023-03-19T23:43:03.695Z,8.2
2023-03-19T23:45:03.048Z,8.3
2023-03-19T23:47:03.029Z,8.3
2023-03-19T23:49:03.023Z,8.3
2023-03-19T23:51:03.630Z,8.3
2023-03-19T23:53:03.012Z,8.2
2023-03-19T23:55:03.332Z,8.2
2023-03-19T23:57:03.045Z,8.2
2023-03-19T23:59:03.055Z,8.2
